Time;durP1;ratioP1;P1;durP2;ratioP2;P2;SDS_P1;SDS_P2;PMS_P1;PMS_P2;Temp;Humidity;BMP_temperature;BMP_pressure;BME280_temperature;BME280_humidity;BME280_pressure;Samples;Min_cycle;Max_cycle;Signal;HPM_P1;HPM_P2
2022/05/06 00:01:16;;;;;;;11.27;5.57;;;;;;;6.08;33.50;100497.97;5088124;27;20611;-69
2022/05/06 00:03:41;;;;;;;9.18;5.68;;;;;;;6.10;33.66;100508.47;5073948;28;20038;-67
2022/05/06 00:06:05;;;;;;;9.18;5.13;;;;;;;6.10;33.21;100493.44;5091482;27;20126;-66
2022/05/06 00:08:30;;;;;;;10.73;5.03;;;;;;;6.26;32.88;100492.84;5072634;28;20055;-75
2022/05/06 00:10:55;;;;;;;7.82;4.32;;;;;;;6.32;32.90;100495.25;5075580;28;20046;-77
2022/05/06 00:13:19;;;;;;;12.68;5.20;;;;;;;6.16;33.41;100495.00;5090304;28;20443;-75
2022/05/06 00:15:44;;;;;;;10.50;5.13;;;;;;;6.18;33.69;100494.03;5091794;28;20039;-73
2022/05/06 00:18:09;;;;;;;11.95;5.10;;;;;;;6.16;33.48;100495.88;5091841;28;20419;-73
2022/05/06 00:20:34;;;;;;;8.60;4.57;;;;;;;5.95;33.76;100506.44;5065708;28;20039;-70
2022/05/06 00:23:00;;;;;;;16.35;5.90;;;;;;;5.99;33.97;100506.25;5091171;28;20046;-73
2022/05/06 00:25:25;;;;;;;11.82;5.35;;;;;;;5.93;34.00;100511.78;5072384;28;20066;-71
2022/05/06 00:27:50;;;;;;;8.57;4.93;;;;;;;6.07;33.61;100496.25;5075416;28;20079;-65
2022/05/06 00:30:15;;;;;;;9.55;5.35;;;;;;;6.06;33.80;100504.25;5075676;28;20039;-66
2022/05/06 00:32:40;;;;;;;9.65;4.28;;;;;;;6.04;33.73;100499.00;5076573;28;20049;-67
2022/05/06 00:35:07;;;;;;;9.10;5.40;;;;;;;5.98;34.16;100507.16;5095383;28;20409;-69
2022/05/06 00:37:32;;;;;;;8.32;4.75;;;;;;;5.96;34.34;100502.88;5077827;28;20035;-71
2022/05/06 00:39:57;;;;;;;8.57;5.40;;;;;;;5.89;34.59;100501.38;5082544;28;20042;-70
2022/05/06 00:42:22;;;;;;;12.23;6.32;;;;;;;5.81;34.60;100501.63;5078785;28;20096;-65
2022/05/06 00:44:46;;;;;;;14.32;5.72;;;;;;;5.90;34.42;100503.97;5053481;28;20035;-70
2022/05/06 00:47:14;;;;;;;9.88;5.40;;;;;;;5.70;35.29;100509.97;5101871;28;20409;-69
2022/05/06 00:49:39;;;;;;;13.23;5.97;;;;;;;5.85;34.64;100508.56;5072661;28;20047;-65
2022/05/06 00:52:07;;;;;;;8.98;5.68;;;;;;;5.79;34.77;100501.69;5068115;28;20035;-73
2022/05/06 00:54:34;;;;;;;18.38;5.75;;;;;;;5.74;34.98;100508.09;5078549;28;20046;-65
2022/05/06 00:57:00;;;;;;;8.65;5.38;;;;;;;5.74;34.99;100502.81;5097110;28;20443;-68
2022/05/06 00:59:25;;;;;;;10.48;5.55;;;;;;;5.89;34.73;100511.94;5097134;28;20043;-66
2022/05/06 01:01:50;;;;;;;10.48;5.38;;;;;;;5.84;34.86;100502.41;5099789;28;20047;-70
2022/05/06 01:04:19;;;;;;;14.77;5.85;;;;;;;5.77;34.99;100503.53;5074845;28;20097;-71
2022/05/06 01:06:46;;;;;;;11.88;5.35;;;;;;;5.77;35.31;100508.81;5071652;28;20045;-70
2022/05/06 01:09:14;;;;;;;8.98;5.30;;;;;;;5.72;35.43;100502.00;5060388;28;20047;-69
2022/05/06 01:11:39;;;;;;;10.43;5.47;;;;;;;5.82;35.03;100501.59;5059532;28;20043;-71
2022/05/06 01:14:04;;;;;;;10.52;5.05;;;;;;;5.82;35.03;100501.59;5077740;27;20389;-70
2022/05/06 01:16:35;;;;;;;8.18;3.67;;;;;;;5.80;34.96;100510.50;5079998;27;20047;-69
2022/05/06 01:19:04;;;;;;;8.55;4.40;;;;;;;5.79;34.61;100512.28;5079392;27;20035;-69
2022/05/06 01:21:34;;;;;;;13.10;5.15;;;;;;;5.69;35.44;100510.91;5062353;27;20041;-72
2022/05/06 01:23:59;;;;;;;8.57;4.85;;;;;;;5.75;34.92;100505.41;5062710;27;20115;-68
2022/05/06 01:26:48;;;;;;;9.90;4.90;;;;;;;5.69;35.41;100500.31;5070113;27;20066;-71
2022/05/06 01:29:14;;;;;;;10.95;4.97;;;;;;;5.65;35.74;100511.06;5079008;27;20047;-67
2022/05/06 01:31:39;;;;;;;13.10;4.90;;;;;;;5.71;34.91;100510.84;5080782;27;20038;-68
2022/05/06 01:34:06;;;;;;;6.82;3.67;;;;;;;5.66;35.56;100507.50;5098894;27;20043;-68
2022/05/06 01:36:30;;;;;;;9.38;5.30;;;;;;;5.66;35.78;100510.16;5097720;27;20458;-64
2022/05/06 01:39:00;;;;;;;10.13;5.30;;;;;;;5.62;35.66;100513.84;5062045;27;20565;-66
2022/05/06 01:41:31;;;;;;;9.50;5.03;;;;;;;5.73;35.47;100511.66;5061816;27;20540;-67
2022/05/06 01:44:09;;;;;;;8.55;4.90;;;;;;;5.73;35.52;100516.94;5046840;27;20086;-67
2022/05/06 01:46:37;;;;;;;10.27;5.15;;;;;;;5.71;35.11;100513.50;5062305;27;20039;-67
2022/05/06 01:49:05;;;;;;;8.52;5.13;;;;;;;5.76;35.40;100519.47;5062568;27;20067;-67
2022/05/06 01:51:33;;;;;;;6.25;4.00;;;;;;;5.74;35.15;100519.53;5062115;27;20397;-70
2022/05/06 01:54:02;;;;;;;11.85;5.43;;;;;;;5.57;36.20;100527.22;5061083;27;20062;-65
2022/05/06 01:56:28;;;;;;;8.45;4.78;;;;;;;5.63;35.86;100518.22;5074875;27;20134;-63
2022/05/06 01:58:54;;;;;;;7.30;4.72;;;;;;;5.59;35.59;100520.09;5045139;27;20058;-64
2022/05/06 02:01:19;;;;;;;9.70;4.50;;;;;;;5.69;35.92;100516.19;5078600;27;20043;-65
2022/05/06 02:06:30;;;;;;;8.00;4.40;;;;;;;5.64;35.88;100526.09;5090848;27;20043;-65
2022/05/06 02:09:16;;;;;;;;;;;;;;;5.82;35.38;100511.31;5094377;27;20054;-62
2022/05/06 02:11:51;;;;;;;13.80;5.93;;;;;;;5.75;35.72;100521.28;5076540;27;20439;-62
2022/05/06 02:14:16;;;;;;;9.63;4.65;;;;;;;5.83;35.72;100526.25;5074254;27;20479;-63
2022/05/06 02:16:59;;;;;;;10.68;5.50;;;;;;;5.76;36.06;100525.63;5060082;27;20576;-63
2022/05/06 02:19:39;;;;;;;10.43;4.82;;;;;;;5.61;36.19;100528.00;5057195;27;20037;-63
2022/05/06 02:22:30;;;;;;;8.98;3.53;;;;;;;5.73;36.19;100524.88;5073638;27;20486;-63
2022/05/06 02:25:17;;;;;;;6.85;4.63;;;;;;;5.65;36.39;100533.09;5091219;27;20046;-63
2022/05/06 02:27:55;;;;;;;8.30;4.70;;;;;;;5.56;36.35;100516.69;5093317;27;20051;-63
2022/05/06 02:33:13;;;;;;;8.25;4.78;;;;;;;5.53;36.44;100528.25;5075225;27;20122;-64
2022/05/06 02:35:44;;;;;;;9.25;4.65;;;;;;;5.54;36.74;100534.41;5077319;27;20413;-63
2022/05/06 02:38:12;;;;;;;6.93;4.20;;;;;;;5.49;37.10;100537.25;5075698;27;20458;-64
2022/05/06 02:40:39;;;;;;;11.27;5.25;;;;;;;5.43;37.31;100538.31;5074306;27;20063;-64
2022/05/06 02:43:06;;;;;;;10.02;5.30;;;;;;;5.50;37.00;100541.59;5061746;27;20043;-63
2022/05/06 02:45:33;;;;;;;6.30;4.43;;;;;;;5.58;37.08;100534.25;5078572;27;20379;-62
2022/05/06 02:47:59;;;;;;;7.50;4.05;;;;;;;5.71;36.49;100540.81;5061983;27;20046;-64
2022/05/06 02:50:25;;;;;;;16.25;5.28;;;;;;;5.82;36.35;100535.13;5050107;27;20035;-65
2022/05/06 02:52:51;;;;;;;8.90;5.65;;;;;;;5.99;36.41;100548.59;5049711;28;20062;-66
2022/05/06 02:55:16;;;;;;;11.25;4.57;;;;;;;6.13;35.93;100538.34;5027473;27;20036;-65
2022/05/06 02:57:41;;;;;;;9.10;5.28;;;;;;;6.18;36.40;100546.13;5067811;27;20043;-65
2022/05/06 03:00:07;;;;;;;13.07;5.03;;;;;;;6.33;35.71;100540.19;5074416;27;20039;-64
2022/05/06 03:02:33;;;;;;;10.50;4.43;;;;;;;6.43;35.92;100552.16;5061005;27;20066;-63
2022/05/06 03:05:02;;;;;;;10.63;5.85;;;;;;;6.45;35.97;100552.09;5058398;28;20410;-68
2022/05/06 03:07:27;;;;;;;7.47;4.20;;;;;;;6.62;35.32;100536.38;5052432;27;20055;-65
2022/05/06 03:09:52;;;;;;;8.63;4.78;;;;;;;6.76;35.18;100554.38;5079390;27;20409;-65
2022/05/06 03:12:20;;;;;;;13.85;6.05;;;;;;;6.96;35.20;100553.53;5065020;28;20092;-66
2022/05/06 03:15:03;;;;;;;14.43;4.85;;;;;;;7.08;35.09;100547.72;5078163;27;20121;-63
2022/05/06 03:17:42;;;;;;;10.68;5.07;;;;;;;7.22;34.88;100555.94;5078669;27;20039;-62
2022/05/06 03:20:08;;;;;;;6.25;4.32;;;;;;;7.40;34.37;100560.44;5061392;27;20104;-66
2022/05/06 03:22:46;;;;;;;7.80;4.82;;;;;;;7.60;34.30;100565.72;5095572;27;20054;-67
2022/05/06 03:25:10;;;;;;;12.35;4.60;;;;;;;7.77;33.79;100559.69;5068972;28;20055;-70
2022/05/06 03:30:22;;;;;;;9.52;4.93;;;;;;;8.05;33.33;100559.25;5059140;28;20046;-67
2022/05/06 03:32:47;;;;;;;14.98;5.35;;;;;;;8.23;33.26;100557.53;5041323;28;20047;-66
2022/05/06 03:35:12;;;;;;;14.57;6.03;;;;;;;8.38;32.89;100552.38;5057730;28;20046;-67
2022/05/06 03:37:40;;;;;;;9.32;4.85;;;;;;;8.66;32.83;100553.72;5040221;28;20036;-68
2022/05/06 03:40:08;;;;;;;9.30;4.85;;;;;;;8.85;32.25;100556.31;5057301;28;20113;-65
2022/05/06 03:42:34;;;;;;;8.52;4.45;;;;;;;8.96;31.95;100553.97;5056316;28;20043;-66
2022/05/06 03:45:03;;;;;;;7.43;4.20;;;;;;;9.09;31.70;100555.06;5040515;28;20067;-66
2022/05/06 03:47:29;;;;;;;9.70;4.50;;;;;;;9.24;31.45;100559.63;5039605;28;20138;-65
2022/05/06 03:52:47;;;;;;;12.30;4.45;;;;;;;9.35;31.27;100562.59;4972890;28;20652;-64
2022/05/06 03:55:12;;;;;;;9.25;5.22;;;;;;;9.48;31.15;100562.78;4963384;28;20140;-65
2022/05/06 03:57:37;;;;;;;7.90;4.60;;;;;;;9.81;31.54;100569.03;4993264;28;20085;-66
2022/05/06 04:00:02;;;;;;;7.22;3.90;;;;;;;10.27;31.08;100563.84;4975897;28;20119;-63
2022/05/06 04:02:41;;;;;;;11.93;4.30;;;;;;;10.63;30.01;100562.72;4993130;28;20049;-64
2022/05/06 04:05:06;;;;;;;7.57;4.05;;;;;;;10.92;30.01;100556.59;4944079;28;20041;-66
2022/05/06 04:07:31;;;;;;;7.20;4.03;;;;;;;11.04;29.15;100560.34;4976036;28;20053;-64
2022/05/06 04:09:56;;;;;;;7.18;4.15;;;;;;;11.33;28.50;100555.94;4976449;28;20127;-64
2022/05/06 04:12:22;;;;;;;8.25;5.13;;;;;;;11.49;28.72;100568.28;4993101;28;20045;-64
2022/05/06 04:14:53;;;;;;;8.43;4.43;;;;;;;11.51;28.45;100562.88;4978191;28;20188;-63
2022/05/06 04:17:20;;;;;;;7.50;4.57;;;;;;;11.54;28.86;100568.84;4992571;28;20115;-63
2022/05/06 04:25:21;;;;;;;5.97;4.07;;;;;;;11.08;29.04;100569.88;4976642;28;20432;-64
2022/05/06 04:27:48;;;;;;;10.30;4.88;;;;;;;11.05;29.36;100564.75;4961320;28;20049;-64
2022/05/06 04:30:13;;;;;;;9.68;4.88;;;;;;;11.09;29.33;100577.81;5054000;28;20100;-65
2022/05/06 04:32:49;;;;;;;15.52;4.53;;;;;;;11.10;29.65;100576.84;5056496;28;20075;-64
2022/05/06 04:35:15;;;;;;;9.40;4.35;;;;;;;11.16;29.10;100581.84;5056330;28;20043;-64
2022/05/06 04:37:42;;;;;;;10.48;4.20;;;;;;;11.17;29.18;100583.53;5056834;28;20092;-66
2022/05/06 04:40:07;;;;;;;14.18;4.30;;;;;;;11.06;28.97;100587.81;5022456;28;20088;-63
2022/05/06 04:42:32;;;;;;;8.73;3.88;;;;;;;10.89;29.31;100583.44;5039422;28;20406;-64
2022/05/06 04:44:57;;;;;;;8.35;3.80;;;;;;;10.70;29.34;100569.47;5056201;28;20040;-64
2022/05/06 04:47:23;;;;;;;8.32;4.18;;;;;;;10.66;29.92;100582.09;5039127;28;20071;-64
2022/05/06 04:49:48;;;;;;;8.35;4.78;;;;;;;10.58;30.36;100570.16;5056695;28;20108;-65
2022/05/06 04:52:13;;;;;;;7.07;4.40;;;;;;;10.53;30.21;100570.41;5059686;28;20270;-65
2022/05/06 04:54:38;;;;;;;6.40;4.30;;;;;;;10.64;29.93;100573.31;5044526;27;20458;-64
2022/05/06 04:57:04;;;;;;;7.05;3.55;;;;;;;10.62;29.58;100583.19;5080306;27;20141;-64
2022/05/06 04:59:33;;;;;;;6.95;4.25;;;;;;;10.62;29.71;100577.00;5063968;27;20252;-64
2022/05/06 05:01:58;;;;;;;6.53;3.47;;;;;;;10.75;29.88;100580.69;5079948;27;20058;-64
2022/05/06 05:04:27;;;;;;;8.15;4.25;;;;;;;10.87;30.36;100578.19;5079969;27;20039;-64
2022/05/06 05:06:56;;;;;;;7.30;3.80;;;;;;;10.96;29.64;100582.13;5079805;27;20046;-65
2022/05/06 05:09:21;;;;;;;8.60;3.92;;;;;;;11.04;29.14;100589.72;5098599;27;20042;-64
2022/05/06 05:11:47;;;;;;;8.02;4.38;;;;;;;11.13;29.86;100587.34;5080265;27;20054;-63
2022/05/06 05:14:19;;;;;;;8.57;4.70;;;;;;;11.25;29.85;100585.78;5080092;27;20055;-64
2022/05/06 05:16:44;;;;;;;8.68;4.40;;;;;;;11.32;29.10;100589.78;5079947;27;20568;-64
2022/05/06 05:19:09;;;;;;;6.07;4.18;;;;;;;11.51;29.34;100581.56;5080230;27;20037;-64
2022/05/06 05:21:42;;;;;;;7.05;4.28;;;;;;;11.71;29.07;100588.34;5080150;27;20038;-66
2022/05/06 05:24:07;;;;;;;12.20;4.28;;;;;;;11.90;28.62;100597.84;5079730;27;20047;-66
2022/05/06 05:26:35;;;;;;;7.95;4.30;;;;;;;12.01;28.85;100597.16;5062880;27;20417;-65
2022/05/06 05:29:01;;;;;;;8.20;3.95;;;;;;;12.11;28.27;100600.13;5079852;27;20043;-64
2022/05/06 05:31:26;;;;;;;11.90;4.75;;;;;;;12.28;28.26;100589.25;5062840;27;20047;-65
2022/05/06 05:33:52;;;;;;;10.90;4.57;;;;;;;12.42;28.46;100597.22;5079877;27;20058;-66
2022/05/06 05:36:18;;;;;;;8.80;3.97;;;;;;;12.63;28.15;100598.53;5079210;27;20532;-65
2022/05/06 05:38:44;;;;;;;5.70;3.88;;;;;;;12.79;27.53;100595.72;5079631;27;20043;-65
2022/05/06 05:41:09;;;;;;;9.18;4.80;;;;;;;12.89;27.16;100598.63;5079582;27;20520;-65
2022/05/06 05:49:06;;;;;;;11.48;3.83;;;;;;;13.03;26.94;100596.78;5080264;27;20051;-65
2022/05/06 05:51:34;;;;;;;6.80;3.83;;;;;;;13.14;26.56;100593.41;5080092;27;20117;-65
2022/05/06 05:54:00;;;;;;;6.05;3.60;;;;;;;13.19;26.56;100593.13;5081408;27;20046;-65
2022/05/06 05:56:29;;;;;;;12.07;4.13;;;;;;;13.34;26.86;100584.88;5083314;27;20039;-67
2022/05/06 05:58:54;;;;;;;5.00;3.70;;;;;;;13.47;26.52;100595.63;5083651;27;20107;-66
2022/05/06 06:01:21;;;;;;;9.15;3.83;;;;;;;13.58;27.23;100595.75;5083097;27;20066;-65
2022/05/06 06:03:46;;;;;;;9.52;4.07;;;;;;;13.84;26.35;100599.31;5104997;27;20054;-65
2022/05/06 06:06:12;;;;;;;7.95;4.22;;;;;;;13.96;26.24;100593.09;5066675;27;20042;-65
2022/05/06 06:08:38;;;;;;;7.45;4.38;;;;;;;14.04;26.02;100590.72;5079346;27;20417;-65
2022/05/06 06:11:04;;;;;;;11.13;4.47;;;;;;;14.20;26.36;100593.19;5066551;27;20047;-64
2022/05/06 06:13:36;;;;;;;7.25;4.07;;;;;;;14.30;25.90;100599.59;5063626;27;20187;-64
2022/05/06 06:16:03;;;;;;;8.80;3.45;;;;;;;14.43;25.32;100589.75;5079598;27;20117;-66
2022/05/06 06:18:28;;;;;;;10.05;4.60;;;;;;;14.54;25.16;100594.31;5061918;27;20117;-64
2022/05/06 06:20:56;;;;;;;9.13;4.07;;;;;;;14.66;24.86;100601.47;5078836;27;20042;-64
2022/05/06 06:23:22;;;;;;;7.05;4.25;;;;;;;14.76;24.56;100605.22;5079028;27;20047;-64
2022/05/06 06:25:48;;;;;;;8.48;4.78;;;;;;;14.99;24.87;100600.81;5062379;27;20126;-66
2022/05/06 06:28:14;;;;;;;10.10;4.00;;;;;;;15.30;24.76;100599.34;5062859;27;20083;-64
2022/05/06 06:30:40;;;;;;;9.82;4.25;;;;;;;15.73;24.55;100601.47;5063115;27;20051;-64
2022/05/06 06:33:05;;;;;;;6.28;4.13;;;;;;;16.18;24.42;100597.84;5079622;27;20125;-66
2022/05/06 06:35:30;;;;;;;10.82;4.43;;;;;;;16.45;23.34;100597.50;5062192;27;20138;-65
2022/05/06 06:37:58;;;;;;;6.93;4.20;;;;;;;16.90;22.99;100595.59;5079770;27;20088;-64
2022/05/06 06:40:27;;;;;;;8.05;3.83;;;;;;;17.32;22.15;100590.28;5084458;27;20135;-64
2022/05/06 06:42:51;;;;;;;7.10;4.35;;;;;;;17.75;21.95;100592.91;5076112;27;20053;-64
2022/05/06 06:45:26;;;;;;;8.60;3.95;;;;;;;18.06;21.25;100591.94;5071564;27;20046;-64
2022/05/06 06:48:00;;;;;;;9.63;4.63;;;;;;;18.33;20.78;100585.09;5069943;27;20043;-64
2022/05/06 06:50:52;;;;;;;9.48;4.57;;;;;;;18.80;20.27;100592.53;5071025;27;20417;-66
2022/05/06 06:53:27;;;;;;;7.68;3.83;;;;;;;19.24;19.88;100584.91;5086381;27;20042;-65
2022/05/06 06:55:51;;;;;;;8.73;4.13;;;;;;;19.60;19.61;100591.47;5074179;27;20047;-66
2022/05/06 06:58:16;;;;;;;10.15;4.20;;;;;;;20.16;18.94;100596.88;5066945;27;20039;-66
2022/05/06 07:00:44;;;;;;;9.35;4.93;;;;;;;20.71;18.62;100588.81;5102990;27;20043;-64
2022/05/06 07:03:13;;;;;;;5.97;4.28;;;;;;;21.45;18.05;100590.41;5087226;27;20046;-63
2022/05/06 07:11:52;;;;;;;5.85;3.97;;;;;;;21.64;17.57;100592.97;5104447;27;20486;-65
2022/05/06 07:13:50;;;;;;;10.43;4.25;;;;;;;22.93;16.94;100581.13;5112637;27;20043;-65
2022/05/06 07:16:14;;;;;;;10.13;4.05;;;;;;;23.79;16.09;100590.59;5094145;27;20068;-65
2022/05/06 07:18:39;;;;;;;6.50;4.40;;;;;;;23.80;15.61;100586.84;5082212;27;20096;-65
2022/05/06 07:21:04;;;;;;;9.20;3.78;;;;;;;23.84;15.38;100588.19;5096566;27;20042;-65
2022/05/06 07:23:28;;;;;;;9.43;4.55;;;;;;;23.68;15.44;100574.63;5077871;27;20134;-64
2022/05/06 07:25:54;;;;;;;9.15;4.30;;;;;;;23.59;15.14;100580.22;5078887;27;20051;-63
2022/05/06 07:28:19;;;;;;;8.10;4.53;;;;;;;23.76;15.16;100571.03;5096417;27;20047;-64
2022/05/06 07:30:43;;;;;;;7.28;4.82;;;;;;;23.83;15.20;100574.75;5095620;27;20405;-65
2022/05/06 07:33:08;;;;;;;8.40;4.65;;;;;;;24.67;14.79;100567.88;5096024;27;20050;-66
2022/05/06 07:35:33;;;;;;;7.60;4.38;;;;;;;25.47;14.81;100577.44;5095748;27;20078;-64
2022/05/06 07:37:57;;;;;;;6.47;4.45;;;;;;;26.06;14.17;100572.13;5096127;27;20050;-64
2022/05/06 07:40:22;;;;;;;7.00;4.80;;;;;;;26.69;13.26;100578.91;5077368;27;20034;-66
2022/05/06 07:42:50;;;;;;;9.43;4.97;;;;;;;27.26;12.72;100567.16;5077454;28;20447;-65
2022/05/06 07:45:16;;;;;;;7.22;4.85;;;;;;;27.79;12.76;100574.00;5077457;27;20118;-66
2022/05/06 07:47:41;;;;;;;8.27;5.07;;;;;;;29.36;11.94;100573.09;5077328;27;20035;-65
2022/05/06 07:50:06;;;;;;;7.90;5.40;;;;;;;31.50;10.67;100571.28;5095794;27;20039;-65
2022/05/06 07:52:31;;;;;;;7.95;4.82;;;;;;;33.22;9.42;100575.84;5096104;27;20083;-65
2022/05/06 07:54:56;;;;;;;6.05;4.70;;;;;;;34.49;8.80;100574.34;5060700;27;20039;-66
2022/05/06 07:57:21;;;;;;;7.78;5.68;;;;;;;35.66;8.42;100580.31;5077351;28;20043;-65
2022/05/06 07:59:46;;;;;;;5.63;4.70;;;;;;;36.60;7.76;100578.44;5095572;27;20084;-66
2022/05/06 08:04:54;;;;;;;10.95;5.50;;;;;;;37.39;7.17;100577.97;5077284;28;20046;-66
2022/05/06 08:07:19;;;;;;;11.35;5.55;;;;;;;37.07;7.27;100573.19;5076851;27;20055;-66
2022/05/06 08:09:44;;;;;;;7.53;5.35;;;;;;;35.64;7.56;100563.06;5095916;27;20051;-68
2022/05/06 08:12:10;;;;;;;8.32;5.82;;;;;;;34.88;7.86;100569.94;5077037;28;20577;-66
2022/05/06 08:14:35;;;;;;;5.88;5.00;;;;;;;34.71;7.78;100553.22;5060080;28;20043;-68
2022/05/06 08:17:00;;;;;;;5.97;5.03;;;;;;;32.71;8.39;100560.63;5076954;28;20042;-67
2022/05/06 08:19:25;;;;;;;6.35;5.07;;;;;;;30.69;9.36;100549.97;5095581;28;20039;-68
2022/05/06 08:21:50;;;;;;;9.77;5.53;;;;;;;30.39;9.74;100544.09;5095414;28;20076;-65
2022/05/06 08:24:15;;;;;;;14.77;6.10;;;;;;;30.26;9.59;100546.88;5078093;27;20121;-67
2022/05/06 08:26:41;;;;;;;6.90;5.70;;;;;;;29.91;9.90;100547.13;5099539;27;20139;-66
2022/05/06 08:29:06;;;;;;;8.10;5.70;;;;;;;30.87;9.23;100555.56;5099258;27;20080;-65
2022/05/06 08:31:37;;;;;;;16.45;6.05;;;;;;;31.56;8.83;100543.69;5099624;27;20484;-65
2022/05/06 08:34:02;;;;;;;9.00;5.72;;;;;;;32.70;8.45;100529.38;5099381;27;20477;-67
2022/05/06 08:36:26;;;;;;;8.77;5.50;;;;;;;34.04;7.96;100540.94;5080878;27;20066;-67
2022/05/06 08:38:51;;;;;;;9.88;5.63;;;;;;;34.94;7.20;100528.22;5064168;27;20413;-68
2022/05/06 08:41:16;;;;;;;7.28;5.85;;;;;;;36.17;7.19;100539.47;5080924;27;20111;-64
2022/05/06 08:43:41;;;;;;;7.53;5.35;;;;;;;36.77;6.59;100542.28;5099092;27;20038;-63
2022/05/06 08:51:45;;;;;;;6.97;5.88;;;;;;;34.49;7.24;100524.50;4996267;28;20460;-65
2022/05/06 08:54:11;;;;;;;8.05;6.07;;;;;;;33.62;7.32;100535.47;4979941;28;20042;-65
2022/05/06 08:56:35;;;;;;;12.00;6.38;;;;;;;32.81;7.60;100527.78;4979683;28;20135;-67
2022/05/06 08:59:00;;;;;;;7.13;5.50;;;;;;;33.03;7.75;100530.84;4979656;28;20124;-65
2022/05/06 09:01:25;;;;;;;8.32;6.15;;;;;;;33.25;7.57;100528.44;4996492;28;20045;-66
2022/05/06 09:03:50;;;;;;;7.97;5.85;;;;;;;33.29;7.58;100541.56;4979632;28;20570;-64
2022/05/06 09:06:26;;;;;;;6.88;5.60;;;;;;;33.80;7.73;100535.41;4963454;28;20072;-66
2022/05/06 09:08:52;;;;;;;8.40;5.93;;;;;;;32.16;8.00;100526.63;4979459;28;20088;-66
2022/05/06 09:12:40;;;;;;;6.53;5.32;;;;;;;31.07;9.06;100516.06;4979538;28;20045;-65
2022/05/06 09:14:04;;;;;;;5.68;5.00;;;;;;;30.27;8.88;100524.66;4995766;28;20088;-66
2022/05/06 09:16:41;;;;;;;8.93;6.00;;;;;;;29.53;9.31;100518.63;4996102;28;20138;-65
2022/05/06 09:19:21;;;;;;;8.48;5.15;;;;;;;29.92;9.22;100523.22;4996206;28;20243;-66
2022/05/06 09:22:11;;;;;;;6.60;5.22;;;;;;;29.95;9.46;100520.94;4996094;28;20181;-65
2022/05/06 09:24:40;;;;;;;8.13;5.68;;;;;;;31.42;8.86;100522.81;4981205;28;20128;-65
2022/05/06 09:27:08;;;;;;;6.93;5.55;;;;;;;30.87;8.62;100521.69;5004018;27;20057;-68
2022/05/06 09:29:43;;;;;;;8.95;6.03;;;;;;;28.52;9.53;100512.25;5064190;27;20035;-65
2022/05/06 09:32:29;;;;;;;10.73;6.32;;;;;;;27.53;10.35;100502.53;5103561;27;20119;-65
2022/05/06 09:34:57;;;;;;;10.30;6.03;;;;;;;26.73;10.88;100511.84;5100636;27;20043;-67
2022/05/06 09:37:39;;;;;;;8.60;5.60;;;;;;;26.32;11.19;100509.66;5064648;27;20111;-65
2022/05/06 09:40:08;;;;;;;7.85;5.97;;;;;;;25.20;11.88;100501.56;5080166;27;20051;-67
2022/05/06 09:42:34;;;;;;;8.57;5.80;;;;;;;25.09;11.99;100505.56;5063670;27;20405;-65
2022/05/06 09:45:00;;;;;;;9.38;5.50;;;;;;;25.23;12.80;100502.06;5098485;27;20584;-65
2022/05/06 09:47:25;;;;;;;8.50;6.63;;;;;;;26.01;11.78;100498.06;5098838;27;20458;-64
2022/05/06 09:49:51;;;;;;;7.05;5.30;;;;;;;27.07;11.25;100497.50;5062903;27;20409;-66
2022/05/06 09:52:16;;;;;;;8.18;6.22;;;;;;;28.16;10.68;100496.88;5062715;27;20438;-65
2022/05/06 09:54:42;;;;;;;9.38;6.13;;;;;;;30.51;9.49;100503.00;5079697;27;20519;-65
2022/05/06 09:57:09;;;;;;;7.47;5.90;;;;;;;32.08;8.97;100506.50;5079721;27;20042;-66
2022/05/06 09:59:36;;;;;;;9.38;5.85;;;;;;;32.15;8.82;100505.63;5098310;27;20050;-64
2022/05/06 10:02:01;;;;;;;8.13;6.13;;;;;;;31.18;9.19;100496.94;5099877;27;20043;-67
2022/05/06 10:04:25;;;;;;;8.50;6.38;;;;;;;30.29;9.44;100495.03;5055721;27;20042;-69
2022/05/06 10:06:51;;;;;;;8.98;5.93;;;;;;;29.47;9.76;100489.25;5111853;27;20035;-68
2022/05/06 10:09:22;;;;;;;10.50;5.78;;;;;;;28.50;10.08;100497.91;5095436;27;20047;-68
2022/05/06 10:11:51;;;;;;;7.57;5.65;;;;;;;26.61;11.21;100494.25;5106801;27;20121;-68
2022/05/06 10:14:16;;;;;;;5.75;5.00;;;;;;;25.88;11.59;100489.66;5092049;27;20130;-68
2022/05/06 10:16:41;;;;;;;5.75;4.93;;;;;;;25.37;12.10;100491.38;5108116;27;20127;-68
2022/05/06 10:19:27;;;;;;;5.35;4.85;;;;;;;25.45;12.16;100486.66;5051981;27;20035;-67
2022/05/06 10:21:55;;;;;;;6.45;4.90;;;;;;;25.19;12.13;100480.75;5079596;27;20043;-67
2022/05/06 10:24:20;;;;;;;6.65;4.53;;;;;;;24.82;12.28;100484.28;5082351;27;20038;-68
2022/05/06 10:26:49;;;;;;;6.53;4.72;;;;;;;24.12;12.80;100476.09;5098637;27;20050;-68
2022/05/06 10:34:55;;;;;;;10.60;5.32;;;;;;;23.24;13.74;100459.78;5080288;27;20566;-67
2022/05/06 10:37:20;;;;;;;7.15;5.03;;;;;;;22.46;14.27;100464.78;5098184;27;20050;-66
2022/05/06 10:39:45;;;;;;;8.63;5.07;;;;;;;22.05;14.21;100459.22;5080127;27;20039;-65
2022/05/06 10:42:17;;;;;;;9.35;5.20;;;;;;;21.50;15.22;100476.88;5098198;27;20084;-67
2022/05/06 10:44:51;;;;;;;7.10;5.32;;;;;;;21.16;15.26;100463.19;5079404;27;20122;-66
2022/05/06 10:47:15;;;;;;;8.75;5.38;;;;;;;20.98;15.14;100466.78;5078852;28;20402;-65
2022/05/06 10:49:41;;;;;;;7.95;4.55;;;;;;;20.71;15.47;100466.88;5098203;27;20381;-66
2022/05/06 10:52:18;;;;;;;6.38;4.93;;;;;;;20.38;15.73;100467.53;5095737;27;20498;-67
2022/05/06 10:54:54;;;;;;;7.80;4.72;;;;;;;20.30;15.79;100463.72;5077536;27;20091;-64
2022/05/06 10:57:23;;;;;;;10.77;5.65;;;;;;;20.17;15.40;100470.47;5098956;27;20043;-65
2022/05/06 10:59:49;;;;;;;12.13;5.53;;;;;;;19.63;16.58;100455.94;5095207;27;20035;-67
2022/05/06 11:02:16;;;;;;;7.95;5.10;;;;;;;19.35;16.91;100460.38;5078569;27;20058;-66
2022/05/06 11:04:41;;;;;;;12.27;5.75;;;;;;;19.28;16.93;100451.16;5068992;27;20799;-68
2022/05/06 11:07:13;;;;;;;7.57;5.53;;;;;;;19.34;16.79;100453.25;5030545;27;20524;-67
2022/05/06 11:09:38;;;;;;;8.35;5.53;;;;;;;19.22;16.81;100451.72;5078352;27;20039;-66
2022/05/06 11:12:03;;;;;;;7.18;5.25;;;;;;;18.98;17.15;100440.50;5096455;27;20046;-67
2022/05/06 11:14:29;;;;;;;8.57;6.18;;;;;;;18.96;17.84;100451.47;5102186;27;20049;-67
2022/05/06 11:17:12;;;;;;;18.02;6.72;;;;;;;18.74;17.47;100449.06;5075587;27;20042;-67
2022/05/06 11:19:37;;;;;;;10.43;6.38;;;;;;;18.61;17.47;100451.19;5076579;28;20038;-66
2022/05/06 11:22:09;;;;;;;9.85;6.13;;;;;;;18.44;18.06;100445.47;5059575;28;20051;-65
2022/05/06 11:24:33;;;;;;;11.27;6.25;;;;;;;18.24;17.89;100441.03;5060708;28;20043;-65
2022/05/06 11:27:15;;;;;;;9.63;6.07;;;;;;;18.37;17.82;100443.47;5077873;28;20142;-66
2022/05/06 11:29:59;;;;;;;12.93;6.00;;;;;;;18.24;18.00;100434.78;5058256;28;20777;-65
2022/05/06 11:32:29;;;;;;;9.73;5.40;;;;;;;18.15;17.99;100433.78;5060185;28;20106;-66
2022/05/06 11:35:10;;;;;;;12.75;5.63;;;;;;;18.16;18.18;100430.09;5042124;28;20374;-66
2022/05/06 11:37:35;;;;;;;8.45;6.35;;;;;;;18.12;18.61;100425.94;5058609;28;20409;-68
2022/05/06 11:40:18;;;;;;;7.82;5.25;;;;;;;18.18;18.09;100427.22;5065345;28;20030;-66
2022/05/06 11:42:43;;;;;;;11.95;5.95;;;;;;;18.25;18.44;100423.84;5085195;27;20194;-66
2022/05/06 11:48:05;;;;;;;8.05;5.45;;;;;;;18.27;17.81;100419.16;5075783;28;20094;-70
2022/05/06 11:50:32;;;;;;;8.10;5.32;;;;;;;18.12;18.07;100421.41;5041220;28;20490;-66
2022/05/06 11:52:58;;;;;;;6.93;5.00;;;;;;;18.02;18.75;100416.97;5057871;28;20406;-74
2022/05/06 11:55:23;;;;;;;8.90;5.32;;;;;;;17.97;18.70;100414.69;5075951;28;20073;-73
2022/05/06 11:57:49;;;;;;;8.77;5.47;;;;;;;18.04;19.09;100412.31;5060166;28;20070;-72
2022/05/06 12:00:15;;;;;;;8.00;5.20;;;;;;;18.04;18.46;100421.25;5041107;28;20054;-72
2022/05/06 12:02:48;;;;;;;9.73;5.60;;;;;;;18.06;18.62;100416.53;5043850;28;20052;-73
2022/05/06 12:05:13;;;;;;;9.63;5.50;;;;;;;17.99;18.52;100415.41;5058262;28;20044;-74
2022/05/06 12:07:41;;;;;;;9.35;5.20;;;;;;;17.93;18.66;100401.63;5057592;28;20520;-73
2022/05/06 12:10:06;;;;;;;9.25;6.15;;;;;;;17.66;18.51;100408.47;5041099;28;20502;-76
2022/05/06 12:12:31;;;;;;;12.80;6.03;;;;;;;17.57;18.84;100406.56;5058028;28;20044;-72
2022/05/06 12:15:09;;;;;;;9.63;5.10;;;;;;;17.83;17.81;100393.50;5065272;28;20038;-73